Time;durP1;ratioP1;P1;durP2;ratioP2;P2;SDS_P1;SDS_P2;PMS_P1;PMS_P2;Temp;Humidity;BMP_temperature;BMP_pressure;BME280_temperature;BME280_humidity;BME280_pressure;Samples;Min_cycle;Max_cycle;Signal;HPM_P1;HPM_P2
2022/08/14 00:00:54;;;;;;;26.10;16.85;;;;;21.00;99239.00;;;;4997571;28;88706;-65
2022/08/14 00:03:28;;;;;;;27.25;17.27;;;20.80;99.90;21.00;99241.00;;;;4972303;28;90835;-65
2022/08/14 00:05:57;;;;;;;27.23;16.55;;;20.70;99.90;20.90;99242.00;;;;4997158;28;87948;-65
2022/08/14 00:08:23;;;;;;;21.92;13.63;;;;;20.90;99243.00;;;;4994944;28;87379;-65
2022/08/14 00:10:50;;;;;;;26.52;14.02;;;;;20.80;99238.00;;;;4994107;28;89734;-65
2022/08/14 00:13:19;;;;;;;19.70;13.10;;;20.60;99.90;20.80;99222.00;;;;4983975;28;87472;-65
2022/08/14 00:15:48;;;;;;;20.25;12.07;;;20.60;99.90;20.80;99226.00;;;;4986864;28;86902;-65
2022/08/14 00:18:18;;;;;;;27.02;13.73;;;20.60;99.90;20.80;99237.00;;;;4996270;28;87019;-65
2022/08/14 00:20:45;;;;;;;18.25;13.20;;;;;20.80;99232.00;;;;4989701;28;89023;-65
2022/08/14 00:23:13;;;;;;;22.65;14.32;;;20.60;99.90;20.80;99233.00;;;;4992712;28;87688;-65
2022/08/14 00:25:41;;;;;;;21.55;12.10;;;20.60;99.90;20.80;99233.00;;;;4991657;28;86986;-65
2022/08/14 00:28:10;;;;;;;22.27;13.98;;;20.50;99.90;20.70;99228.00;;;;4993726;28;88184;-65
2022/08/14 00:30:37;;;;;;;25.92;13.98;;;20.50;99.90;20.70;99225.00;;;;4989401;28;88679;-65
2022/08/14 00:33:04;;;;;;;20.23;13.73;;;;;20.60;99226.00;;;;4993223;28;89357;-65
2022/08/14 00:35:31;;;;;;;26.27;13.65;;;20.40;99.90;20.60;99229.00;;;;4990699;28;87424;-65
2022/08/14 00:37:57;;;;;;;22.40;16.13;;;;;20.60;99227.00;;;;4992097;28;87222;-65
2022/08/14 00:40:24;;;;;;;24.17;14.70;;;;;20.50;99224.00;;;;4996657;28;87744;-65
2022/08/14 00:42:51;;;;;;;26.23;12.57;;;20.30;99.90;20.50;99220.00;;;;4994733;28;88361;-65
2022/08/14 00:45:18;;;;;;;24.63;13.93;;;;;20.50;99225.00;;;;4994542;28;87146;-65
2022/08/14 00:47:46;;;;;;;24.42;11.57;;;20.30;99.90;20.50;99225.00;;;;4992256;28;86756;-65
2022/08/14 00:50:19;;;;;;;18.30;10.68;;;20.30;99.90;20.40;99224.00;;;;4991207;28;87766;-65
2022/08/14 00:52:51;;;;;;;20.35;10.50;;;20.20;99.90;20.40;99224.00;;;;4992461;28;88463;-65
2022/08/14 00:55:18;;;;;;;;;;;20.20;99.90;20.40;99224.00;;;;4991423;28;88039;-65
2022/08/14 00:58:29;;;;;;;17.90;9.05;;;;;20.30;99226.00;;;;4991613;28;87989;-65
2022/08/14 01:00:33;;;;;;;14.30;7.93;;;;;20.30;99225.00;;;;4993928;28;89703;-65
2022/08/14 01:03:00;;;;;;;20.95;7.50;;;;;20.30;99227.00;;;;4998548;28;88286;-65
2022/08/14 01:05:28;;;;;;;13.13;6.55;;;20.10;99.90;20.20;99223.00;;;;5000087;28;87124;-65
2022/08/14 01:07:58;;;;;;;10.52;6.43;;;20.10;99.90;20.20;99222.00;;;;4996213;28;87129;-65
2022/08/14 01:10:49;;;;;;;12.38;6.60;;;20.10;99.90;20.20;99220.00;;;;4998289;28;87736;-65
2022/08/14 01:13:16;;;;;;;11.10;6.03;;;20.00;99.90;20.20;99222.00;;;;4998289;28;87825;-65
2022/08/14 01:15:54;;;;;;;12.15;6.00;;;20.00;99.90;20.10;99226.00;;;;4988391;28;86924;-65
2022/08/14 01:21:14;;;;;;;11.90;7.43;;;20.00;99.90;20.20;99227.00;;;;4989453;28;89145;-65
2022/08/14 01:23:49;;;;;;;18.13;11.05;;;20.00;99.90;20.20;99232.00;;;;4988580;28;88127;-65
2022/08/14 01:26:22;;;;;;;17.35;9.40;;;20.00;99.90;20.20;99223.00;;;;4989657;28;86951;-65
2022/08/14 01:28:54;;;;;;;16.63;11.43;;;20.00;99.90;20.20;99226.00;;;;4993258;28;86996;-65
2022/08/14 01:31:24;;;;;;;17.20;9.82;;;20.00;99.90;20.20;99226.00;;;;4987237;28;87586;-65
2022/08/14 01:33:55;;;;;;;16.73;10.52;;;20.00;99.90;20.20;99227.00;;;;4995906;28;87200;-65
2022/08/14 01:36:23;;;;;;;15.40;9.30;;;20.00;99.90;20.10;99227.00;;;;4983222;28;87644;-65
2022/08/14 01:38:54;;;;;;;18.25;10.25;;;20.00;99.90;20.20;99226.00;;;;4997096;28;86737;-65
2022/08/14 01:41:22;;;;;;;16.13;10.20;;;20.00;99.90;20.10;99225.00;;;;4999922;28;87876;-65
2022/08/14 01:44:05;;;;;;;13.18;9.10;;;20.00;99.90;20.20;99229.00;;;;4993731;28;87554;-65
2022/08/14 01:46:37;;;;;;;13.82;8.98;;;20.00;99.90;20.10;99228.00;;;;4989434;28;88069;-65
2022/08/14 01:49:08;;;;;;;13.88;8.27;;;20.00;99.90;20.10;99226.00;;;;4997263;28;86928;-65
2022/08/14 01:51:38;;;;;;;11.68;8.13;;;20.00;99.90;20.20;99229.00;;;;4999016;28;88086;-65
2022/08/14 01:54:09;;;;;;;14.23;8.73;;;20.00;99.90;20.20;99228.00;;;;4993999;28;87438;-65
2022/08/14 01:56:38;;;;;;;14.32;8.05;;;20.00;99.90;20.20;99230.00;;;;4988930;28;87062;-66
2022/08/14 01:59:14;;;;;;;14.13;8.20;;;19.90;99.90;20.10;99231.00;;;;4991052;28;87789;-66
2022/08/14 02:01:42;;;;;;;12.52;8.23;;;19.90;99.90;20.10;99235.00;;;;4994630;28;87928;-65
2022/08/14 02:04:09;;;;;;;13.00;8.77;;;19.80;99.90;20.00;99236.00;;;;4999747;28;87339;-65
2022/08/14 02:06:36;;;;;;;13.63;7.80;;;19.80;99.90;20.00;99236.00;;;;4995928;28;87029;-65
2022/08/14 02:09:07;;;;;;;13.07;8.38;;;19.80;99.90;20.00;99242.00;;;;4997625;28;87000;-65
2022/08/14 02:11:35;;;;;;;10.52;8.27;;;;;19.90;99242.00;;;;4989233;28;87922;-65
2022/08/14 02:14:10;;;;;;;16.25;9.20;;;19.60;99.90;19.80;99240.00;;;;4989317;28;88416;-65
2022/08/14 02:16:43;;;;;;;13.68;9.32;;;19.60;99.90;19.70;99243.00;;;;4993188;28;87121;-65
2022/08/14 02:19:19;;;;;;;15.35;9.60;;;19.60;99.90;19.70;99233.00;;;;4993834;28;87173;-65
2022/08/14 02:21:49;;;;;;;15.20;10.45;;;19.50;99.90;19.60;99247.00;;;;4994275;28;87703;-65
2022/08/14 02:24:19;;;;;;;19.42;10.25;;;19.40;99.90;19.50;99249.00;;;;4999002;28;87240;-65
2022/08/14 02:26:48;;;;;;;13.00;8.18;;;19.30;99.90;19.40;99241.00;;;;4988482;28;87368;-65
2022/08/14 02:29:24;;;;;;;18.70;9.98;;;19.30;99.90;19.40;99251.00;;;;4993030;28;86268;-65
2022/08/14 02:31:54;;;;;;;14.63;9.85;;;19.30;99.90;19.40;99241.00;;;;4997670;28;87610;-65
2022/08/14 02:34:33;;;;;;;17.55;8.90;;;19.30;99.90;19.50;99247.00;;;;4992802;28;88190;-65
2022/08/14 02:37:11;;;;;;;20.27;9.68;;;19.30;99.90;19.50;99246.00;;;;4991626;28;88022;-65
2022/08/14 02:39:43;;;;;;;15.73;9.55;;;19.40;99.90;19.50;99254.00;;;;4990399;28;86938;-65
2022/08/14 02:42:14;;;;;;;20.33;11.88;;;19.40;99.90;19.60;99243.00;;;;5002651;28;87681;-65
2022/08/14 02:44:44;;;;;;;19.20;12.20;;;19.50;99.90;19.60;99255.00;;;;4996856;28;87482;-65
2022/08/14 02:47:10;;;;;;;21.85;12.57;;;19.50;99.90;19.70;99251.00;;;;4993610;28;87023;-65
2022/08/14 02:49:38;;;;;;;27.83;13.32;;;19.60;99.90;19.70;99254.00;;;;5003844;28;87029;-65
2022/08/14 02:52:06;;;;;;;23.55;12.75;;;19.60;99.90;19.70;99263.00;;;;4994464;28;87743;-65
2022/08/14 02:54:34;;;;;;;21.63;13.38;;;19.50;99.90;19.70;99257.00;;;;4997682;28;87735;-65
2022/08/14 02:57:05;;;;;;;22.17;12.80;;;19.60;99.90;19.70;99258.00;;;;4990563;28;87457;-65
2022/08/14 02:59:33;;;;;;;22.40;12.75;;;19.80;99.90;20.00;99256.00;;;;4995053;28;87916;-65
2022/08/14 03:02:00;;;;;;;18.98;11.77;;;;;20.40;99246.00;;;;4991612;28;88294;-65
2022/08/14 03:04:27;;;;;;;15.88;9.80;;;;;20.90;99252.00;;;;4992265;28;89355;-65
2022/08/14 03:06:54;;;;;;;12.38;8.02;;;;;21.30;99254.00;;;;4991352;28;86974;-65
2022/08/14 03:09:20;;;;;;;14.18;8.18;;;;;21.70;99248.00;;;;4978248;28;87043;-65
2022/08/14 03:11:47;;;;;;;14.98;9.23;;;;;22.00;99248.00;;;;4994710;28;87622;-65
2022/08/14 03:14:13;;;;;;;17.83;9.10;;;;;22.20;99252.00;;;;4991242;28;89233;-64
2022/08/14 03:16:40;;;;;;;13.45;8.00;;;22.00;99.90;22.40;99255.00;;;;4998018;28;90268;-65
2022/08/14 03:19:08;;;;;;;19.27;8.88;;;22.20;99.90;22.50;99251.00;;;;4988964;28;86484;-65
2022/08/14 03:21:36;;;;;;;12.23;7.60;;;22.40;99.90;22.70;99255.00;;;;5001661;28;88624;-65
2022/08/14 03:26:31;;;;;;;18.42;12.68;;;;;23.10;99260.00;;;;4991216;28;88671;-65
2022/08/14 03:28:58;;;;;;;25.08;14.90;;;;;23.40;99258.00;;;;4995274;28;86956;-65
2022/08/14 03:31:24;;;;;;;24.05;16.52;;;;;23.60;99250.00;;;;4987111;28;88739;-65
2022/08/14 03:33:51;;;;;;;25.33;15.60;;;;;23.80;99258.00;;;;4995880;28;88769;-64
2022/08/14 03:36:20;;;;;;;27.98;16.08;;;23.60;99.90;24.00;99250.00;;;;4999171;28;87384;-65
2022/08/14 03:38:49;;;;;;;27.13;14.88;;;23.80;99.90;24.30;99245.00;;;;4999720;28;87004;-65
2022/08/14 03:41:23;;;;;;;31.38;17.75;;;23.40;99.90;23.90;99250.00;;;;5001878;28;87671;-65
2022/08/14 03:43:59;;;;;;;27.23;16.95;;;23.40;99.90;23.90;99249.00;;;;4990010;28;87123;-65
2022/08/14 03:46:30;;;;;;;27.63;17.10;;;23.20;99.90;23.60;99247.00;;;;4987971;28;87151;-65
2022/08/14 03:49:00;;;;;;;24.70;16.40;;;;;23.40;99238.00;;;;4992399;28;87230;-65
2022/08/14 03:51:27;;;;;;;19.98;13.13;;;;;23.80;99247.00;;;;4994980;28;89843;-65
2022/08/14 03:53:59;;;;;;;20.77;12.95;;;23.70;99.90;24.20;99248.00;;;;4996319;28;89331;-65
2022/08/14 03:56:28;;;;;;;22.13;12.98;;;23.90;99.90;24.50;99249.00;;;;4996142;28;87184;-65
2022/08/14 03:59:04;;;;;;;19.08;13.48;;;24.20;99.90;24.60;99259.00;;;;4997976;28;87512;-65
2022/08/14 04:01:30;;;;;;;18.30;13.10;;;;;24.80;99249.00;;;;4993307;28;88743;-65
2022/08/14 04:03:59;;;;;;;26.95;14.55;;;;;24.90;99240.00;;;;4994780;28;87626;-66
2022/08/14 04:06:25;;;;;;;24.90;13.55;;;;;25.00;99253.00;;;;4996748;28;86972;-65
2022/08/14 04:08:52;;;;;;;21.80;12.20;;;;;25.10;99252.00;;;;4991423;28;86659;-65
2022/08/14 04:11:19;;;;;;;23.70;13.23;;;24.70;99.90;25.20;99257.00;;;;4987100;28;87285;-65
2022/08/14 04:13:48;;;;;;;24.20;13.32;;;;;25.40;99260.00;;;;4996434;28;87267;-65
2022/08/14 04:16:19;;;;;;;23.73;14.35;;;25.10;99.90;25.60;99258.00;;;;4991360;28;88460;-65
2022/08/14 04:18:52;;;;;;;26.27;13.95;;;25.10;99.90;25.70;99262.00;;;;4994432;28;86929;-66
2022/08/14 04:21:23;;;;;;;25.63;14.57;;;;;25.30;99256.00;;;;5001431;28;88678;-66
2022/08/14 04:23:52;;;;;;;26.98;16.27;;;24.50;99.90;25.00;99263.00;;;;4990650;28;87356;-66
2022/08/14 04:26:21;;;;;;;26.48;15.05;;;24.00;99.90;24.50;99268.00;;;;4986915;28;87570;-65
2022/08/14 04:28:49;;;;;;;28.13;15.10;;;24.00;99.90;24.50;99259.00;;;;4990117;28;87603;-65
2022/08/14 04:31:21;;;;;;;30.77;18.77;;;24.00;99.90;24.60;99256.00;;;;4996696;28;87622;-65
2022/08/14 04:33:48;;;;;;;25.20;16.80;;;;;24.90;99259.00;;;;4993974;28;87301;-65
2022/08/14 04:36:14;;;;;;;22.67;15.93;;;;;24.90;99269.00;;;;4999930;28;87036;-65
2022/08/14 04:44:11;;;;;;;23.30;14.85;;;;;26.10;99271.00;;;;4995089;28;88140;-65
2022/08/14 04:46:37;;;;;;;20.45;13.65;;;;;26.40;99256.00;;;;4997042;28;87007;-65
2022/08/14 04:49:04;;;;;;;23.98;13.43;;;25.80;99.90;26.50;99264.00;;;;4989083;28;87816;-65
2022/08/14 04:51:31;;;;;;;22.60;14.13;;;;;26.70;99267.00;;;;4990425;28;88158;-65
2022/08/14 04:54:00;;;;;;;25.77;13.90;;;26.20;99.90;26.90;99267.00;;;;4991878;28;88731;-66
2022/08/14 04:56:26;;;;;;;23.20;13.20;;;;;27.00;99261.00;;;;4997996;28;87143;-66
2022/08/14 04:58:59;;;;;;;20.95;13.48;;;26.40;99.90;27.10;99263.00;;;;4997089;28;86435;-66
2022/08/14 05:01:26;;;;;;;25.00;14.00;;;26.20;99.90;26.90;99263.00;;;;4991791;28;88008;-66
2022/08/14 05:03:53;;;;;;;20.75;11.43;;;;;26.90;99270.00;;;;4993794;28;88750;-66
2022/08/14 05:06:20;;;;;;;16.63;10.25;;;;;27.20;99263.00;;;;4997727;28;87994;-66
2022/08/14 05:08:47;;;;;;;21.60;11.57;;;;;27.40;99267.00;;;;4995386;28;87992;-66
2022/08/14 05:11:14;;;;;;;19.38;9.45;;;;;27.40;99266.00;;;;4993589;28;88812;-65
2022/08/14 05:13:42;;;;;;;17.67;8.18;;;;;27.40;99263.00;;;;4996976;28;87445;-66
2022/08/14 05:16:12;;;;;;;15.70;8.52;;;;;27.50;99258.00;;;;4997820;28;87700;-66
2022/08/14 05:18:38;;;;;;;14.85;8.35;;;;;27.70;99266.00;;;;4997510;28;86971;-65
2022/08/14 05:21:08;;;;;;;16.75;9.38;;;27.30;99.90;28.00;99270.00;;;;4988615;28;88639;-66
2022/08/14 05:23:38;;;;;;;19.80;8.65;;;27.40;99.90;28.10;99273.00;;;;4991034;28;86673;-65
2022/08/14 05:26:11;;;;;;;14.18;8.02;;;;;28.30;99259.00;;;;4991113;28;86983;-66
2022/08/14 05:28:44;;;;;;;12.32;7.25;;;27.50;99.90;28.30;99259.00;;;;4991652;28;87018;-65
2022/08/14 05:31:16;;;;;;;16.00;7.75;;;27.50;99.90;28.10;99263.00;;;;4970257;28;90395;-65
2022/08/14 05:33:44;;;;;;;15.00;8.55;;;27.40;99.90;28.10;99257.00;;;;4987228;28;89212;-65
2022/08/14 05:36:12;;;;;;;19.02;8.38;;;27.40;99.90;28.10;99266.00;;;;4991439;28;87924;-65
2022/08/14 05:38:46;;;;;;;14.57;7.78;;;27.40;99.90;28.00;99260.00;;;;4991876;28;87926;-66
2022/08/14 05:41:16;;;;;;;13.10;6.78;;;27.20;99.90;27.90;99258.00;;;;4989616;28;87399;-66
2022/08/14 05:43:44;;;;;;;13.30;6.93;;;;;27.70;99252.00;;;;4993807;28;87982;-65
2022/08/14 05:46:21;;;;;;;11.48;6.53;;;27.30;99.80;27.90;99247.00;;;;5008060;28;87075;-66
2022/08/14 05:48:56;;;;;;;14.35;6.95;;;27.30;99.50;28.00;99258.00;;;;4993719;28;86330;-65
2022/08/14 05:51:24;;;;;;;13.20;6.03;;;27.30;98.80;28.00;99257.00;;;;4994474;28;87507;-65
2022/08/14 05:53:51;;;;;;;10.63;5.97;;;;;28.10;99265.00;;;;4991543;28;87296;-65
2022/08/14 05:56:17;;;;;;;13.85;6.20;;;;;28.10;99258.00;;;;4992544;28;87955;-67
2022/08/14 05:58:44;;;;;;;21.90;6.82;;;27.30;98.30;28.00;99253.00;;;;4999214;28;87063;-64
2022/08/14 06:01:11;;;;;;;12.95;6.15;;;;;27.90;99255.00;;;;5002979;28;88712;-65
2022/08/14 06:03:38;;;;;;;10.90;6.28;;;;;27.70;99253.00;;;;4996405;28;88209;-65
2022/08/14 06:06:04;;;;;;;12.32;5.93;;;;;27.60;99258.00;;;;5001988;28;87269;-67
2022/08/14 06:08:32;;;;;;;14.60;6.55;;;26.90;99.60;27.50;99247.00;;;;5008567;28;88000;-67
2022/08/14 06:11:03;;;;;;;9.30;5.47;;;26.70;99.20;27.20;99249.00;;;;4997059;28;87687;-65
2022/08/14 06:13:31;;;;;;;;;;;26.70;99.60;26.80;99260.00;;;;4996620;28;88233;-65
2022/08/14 06:15:57;;;;;;;11.70;6.15;;;;;26.50;99252.00;;;;4994689;28;86955;-65
2022/08/14 06:18:24;;;;;;;10.00;6.07;;;;;26.20;99249.00;;;;4995631;28;87365;-66
2022/08/14 06:20:51;;;;;;;13.27;5.68;;;;;26.00;99261.00;;;;4996075;28;89642;-66
2022/08/14 06:23:17;;;;;;;9.82;6.15;;;;;25.90;99254.00;;;;4996672;28;87144;-67
2022/08/14 06:25:44;;;;;;;13.20;5.70;;;;;25.90;99253.00;;;;4996423;28;87022;-67
2022/08/14 06:28:22;;;;;;;12.50;6.40;;;25.80;99.90;26.00;99251.00;;;;4997101;28;87041;-67
2022/08/14 06:30:49;;;;;;;13.43;6.68;;;;;26.00;99251.00;;;;4980747;28;88571;-65
2022/08/14 06:33:17;;;;;;;12.18;6.47;;;25.90;99.90;26.00;99260.00;;;;4999418;28;87572;-65
2022/08/14 06:35:45;;;;;;;9.30;5.50;;;25.90;99.90;26.00;99247.00;;;;5001956;28;87325;-64
2022/08/14 06:38:21;;;;;;;12.05;5.45;;;25.80;99.90;26.00;99251.00;;;;4975730;28;86785;-65
2022/08/14 06:40:50;;;;;;;10.50;5.43;;;25.90;99.90;26.00;99259.00;;;;5003178;28;87542;-66
2022/08/14 06:43:19;;;;;;;8.98;5.00;;;25.80;99.90;26.00;99253.00;;;;5002386;28;87342;-65
2022/08/14 06:45:47;;;;;;;9.48;4.90;;;25.80;99.90;25.90;99249.00;;;;4975856;28;87942;-66
2022/08/14 06:48:22;;;;;;;14.70;5.25;;;25.90;99.90;26.00;99263.00;;;;4997532;28;87096;-65
2022/08/14 06:50:50;;;;;;;11.32;4.18;;;25.80;99.90;26.00;99254.00;;;;4992963;28;88530;-65
2022/08/14 06:53:18;;;;;;;9.70;4.22;;;;;26.10;99250.00;;;;4991506;28;88761;-65
2022/08/14 06:55:47;;;;;;;11.35;3.83;;;26.10;99.30;26.20;99251.00;;;;4990770;28;86921;-65
2022/08/14 06:58:16;;;;;;;8.77;4.43;;;26.20;98.80;26.40;99246.00;;;;4990257;28;87170;-66
2022/08/14 07:06:14;;;;;;;9.10;3.75;;;;;26.50;99251.00;;;;4986120;28;86898;-65
2022/08/14 07:08:42;;;;;;;6.88;3.95;;;;;26.50;99253.00;;;;4998237;28;87064;-65
2022/08/14 07:11:09;;;;;;;10.68;3.63;;;;;26.50;99249.00;;;;4998975;28;89604;-66
2022/08/14 07:13:36;;;;;;;6.40;4.03;;;26.20;98.30;26.40;99260.00;;;;4992205;28;88887;-68
2022/08/14 07:16:03;;;;;;;8.52;4.15;;;;;26.50;99253.00;;;;4995163;28;86952;-67
2022/08/14 07:18:31;;;;;;;10.05;3.80;;;26.30;97.90;26.50;99250.00;;;;4993412;28;86983;-66
2022/08/14 07:21:00;;;;;;;6.70;4.10;;;26.30;98.30;26.50;99245.00;;;;4991159;28;88594;-65
2022/08/14 07:23:27;;;;;;;7.60;3.30;;;;;26.50;99240.00;;;;5000938;28;89184;-66
2022/08/14 07:25:55;;;;;;;6.15;3.60;;;26.40;96.40;26.60;99246.00;;;;4990602;28;86964;-66
2022/08/14 07:28:32;;;;;;;5.40;3.30;;;26.50;96.00;26.70;99247.00;;;;4994462;28;86215;-67
2022/08/14 07:31:01;;;;;;;5.60;3.50;;;26.50;95.80;26.70;99247.00;;;;4995251;28;87761;-65
2022/08/14 07:33:31;;;;;;;3.90;3.05;;;26.60;95.90;26.70;99250.00;;;;4986330;28;87351;-66
2022/08/14 07:36:01;;;;;;;6.07;3.00;;;26.60;96.10;26.80;99248.00;;;;4991640;28;88385;-66
2022/08/14 07:38:28;;;;;;;7.15;3.60;;;26.70;95.60;26.90;99248.00;;;;4990063;28;87312;-66
2022/08/14 07:40:56;;;;;;;6.07;3.30;;;;;26.90;99252.00;;;;4993446;28;88993;-66
2022/08/14 07:43:22;;;;;;;5.10;3.72;;;;;26.90;99248.00;;;;4989252;28;89965;-65
2022/08/14 07:45:49;;;;;;;8.98;3.90;;;;;27.00;99250.00;;;;4992663;28;86985;-66
2022/08/14 07:48:15;;;;;;;6.63;3.13;;;;;27.00;99251.00;;;;4997090;28;87083;-66
2022/08/14 07:50:42;;;;;;;8.50;3.70;;;;;27.00;99247.00;;;;4993535;28;87543;-66
2022/08/14 07:53:09;;;;;;;6.57;3.53;;;;;27.10;99247.00;;;;4990258;28;87293;-65
2022/08/14 07:55:35;;;;;;;7.45;3.92;;;;;27.10;99252.00;;;;4995974;28;87272;-67
2022/08/14 07:58:02;;;;;;;6.88;3.45;;;27.00;94.60;27.10;99245.00;;;;4997238;28;87399;-66
2022/08/14 08:00:30;;;;;;;6.55;3.03;;;27.00;94.30;27.20;99244.00;;;;4993241;28;88490;-67
2022/08/14 08:02:58;;;;;;;7.57;3.33;;;;;27.20;99258.00;;;;4994262;28;87988;-65
2022/08/14 08:05:25;;;;;;;5.70;3.50;;;27.00;94.30;27.20;99250.00;;;;4996161;28;87584;-65
2022/08/14 08:07:53;;;;;;;5.13;3.80;;;27.10;94.20;27.30;99254.00;;;;4996754;28;87368;-65
2022/08/14 08:10:32;;;;;;;6.07;3.80;;;26.90;94.20;27.20;99260.00;;;;4996172;28;87855;-65
2022/08/14 08:13:03;;;;;;;5.60;3.72;;;26.90;94.50;27.10;99251.00;;;;4996961;28;88339;-65
2022/08/14 08:15:34;;;;;;;5.60;3.28;;;27.00;94.60;27.20;99250.00;;;;5002321;28;87070;-66
2022/08/14 08:18:06;;;;;;;6.85;3.50;;;27.00;94.40;27.20;99257.00;;;;4992604;28;87442;-67
2022/08/14 08:20:36;;;;;;;7.50;3.30;;;27.10;94.70;27.30;99264.00;;;;4990454;28;87362;-67
2022/08/14 08:23:04;;;;;;;8.82;3.85;;;27.00;94.30;27.30;99258.00;;;;4994202;28;88390;-67
2022/08/14 08:25:35;;;;;;;9.13;4.25;;;27.00;94.40;27.20;99260.00;;;;4995688;28;88440;-67
2022/08/14 08:28:07;;;;;;;9.98;4.15;;;26.90;94.40;27.10;99252.00;;;;5000531;28;87251;-67
2022/08/14 08:30:37;;;;;;;6.03;3.58;;;26.90;94.30;27.10;99252.00;;;;4991466;28;88476;-67
2022/08/14 08:33:05;;;;;;;7.47;3.50;;;27.00;94.90;27.20;99251.00;;;;5000032;28;87154;-67
2022/08/14 08:35:35;;;;;;;7.78;3.70;;;27.00;93.70;27.20;99254.00;;;;5000068;28;87425;-67
2022/08/14 08:38:26;;;;;;;9.45;3.90;;;27.00;94.10;27.20;99260.00;;;;4999306;28;87308;-67
2022/08/14 08:40:59;;;;;;;8.73;3.97;;;27.10;94.20;27.30;99250.00;;;;5001279;28;88635;-67
2022/08/14 08:43:32;;;;;;;7.97;3.67;;;26.90;94.00;27.20;99248.00;;;;4996528;28;87084;-66
2022/08/14 08:46:13;;;;;;;4.95;3.55;;;26.90;93.90;27.20;99251.00;;;;4986988;28;87381;-67
2022/08/14 08:48:47;;;;;;;10.43;3.92;;;27.00;94.70;27.30;99247.00;;;;4989891;28;87036;-67
2022/08/14 08:51:29;;;;;;;11.10;4.13;;;27.00;94.10;27.30;99247.00;;;;4989075;28;87923;-67
2022/08/14 08:54:22;;;;;;;14.30;4.05;;;27.10;94.40;27.40;99249.00;;;;4993963;28;89445;-67
2022/08/14 08:56:51;;;;;;;6.43;3.60;;;27.20;93.40;27.50;99245.00;;;;4995951;28;87031;-66
2022/08/14 08:59:31;;;;;;;8.90;3.78;;;27.30;93.40;27.50;99231.00;;;;4995517;28;87053;-67
2022/08/14 09:02:07;;;;;;;5.88;3.33;;;27.40;93.10;27.70;99236.00;;;;4988894;28;88788;-67
2022/08/14 09:04:38;;;;;;;8.35;4.13;;;27.40;93.40;27.70;99235.00;;;;4989340;28;87511;-67
2022/08/14 09:07:05;;;;;;;8.60;3.85;;;;;27.70;99237.00;;;;4993720;28;87007;-67
2022/08/14 09:09:32;;;;;;;8.50;4.07;;;27.50;92.60;27.80;99236.00;;;;4984645;28;86414;-67
2022/08/14 09:12:01;;;;;;;5.28;3.28;;;27.70;92.90;28.00;99240.00;;;;4986632;28;87652;-67
2022/08/14 09:14:30;;;;;;;8.13;4.10;;;27.90;92.60;28.20;99229.00;;;;4992920;28;88463;-66
2022/08/14 09:16:58;;;;;;;7.78;3.65;;;28.20;92.20;28.40;99226.00;;;;4986333;28;88356;-65
2022/08/14 09:19:27;;;;;;;5.30;3.53;;;28.30;92.30;28.60;99227.00;;;;4995703;28;88744;-66
2022/08/14 09:21:54;;;;;;;7.47;3.60;;;;;28.60;99233.00;;;;4983534;28;88062;-66
2022/08/14 09:24:21;;;;;;;5.47;3.60;;;;;28.50;99232.00;;;;4993530;28;87213;-66
2022/08/14 09:26:48;;;;;;;4.65;3.90;;;;;28.40;99227.00;;;;4993126;28;87192;-66
2022/08/14 09:29:14;;;;;;;5.63;3.90;;;;;28.50;99225.00;;;;4991536;28;86932;-66
2022/08/14 09:31:45;;;;;;;9.52;3.95;;;28.40;91.70;28.80;99225.00;;;;4999998;28;88748;-66
2022/08/14 09:34:23;;;;;;;7.70;3.55;;;;;29.10;99222.00;;;;4987475;28;87061;-66
2022/08/14 09:37:48;;;;;;;6.50;3.80;;;28.80;90.20;29.30;99229.00;;;;4982643;28;88159;-66
2022/08/14 09:40:29;;;;;;;6.55;3.58;;;29.10;89.70;29.50;99220.00;;;;4979701;28;87039;-66
2022/08/14 09:43:42;;;;;;;5.30;3.70;;;29.10;89.60;29.50;99212.00;;;;4984607;28;88665;-67
2022/08/14 09:46:09;;;;;;;7.45;3.45;;;;;29.20;99231.00;;;;4993564;28;89567;-65
2022/08/14 09:48:36;;;;;;;6.10;3.45;;;;;29.40;99230.00;;;;4993897;28;87409;-67
2022/08/14 09:51:06;;;;;;;5.30;3.50;;;29.00;89.40;29.50;99223.00;;;;4988581;28;87151;-67
2022/08/14 09:53:46;;;;;;;7.38;3.60;;;29.00;89.70;29.60;99230.00;;;;4991278;28;87341;-66
2022/08/14 09:56:13;;;;;;;5.50;4.00;;;;;29.60;99225.00;;;;4985951;28;88734;-67
2022/08/14 09:58:43;;;;;;;10.30;3.38;;;;;29.60;99228.00;;;;4991426;28;87022;-67
2022/08/14 10:01:14;;;;;;;5.68;3.75;;;28.90;89.60;29.50;99231.00;;;;4990620;28;86208;-66
2022/08/14 10:04:18;;;;;;;6.03;4.07;;;28.90;89.80;29.50;99234.00;;;;4987995;28;88704;-66
2022/08/14 10:06:44;;;;;;;9.60;4.03;;;;;29.50;99224.00;;;;4984731;28;88486;-66
2022/08/14 10:09:11;;;;;;;6.55;3.50;;;;;29.40;99222.00;;;;4983187;28;87995;-66
2022/08/14 10:11:40;;;;;;;8.18;3.78;;;28.80;90.10;29.30;99233.00;;;;4993944;28;87035;-64
2022/08/14 10:14:18;;;;;;;11.32;4.43;;;28.70;90.20;29.30;99230.00;;;;4979368;28;88798;-65
2022/08/14 10:16:47;;;;;;;6.18;4.00;;;28.60;90.10;29.00;99226.00;;;;4986494;28;87745;-65
2022/08/14 10:19:17;;;;;;;7.10;4.00;;;28.30;90.50;28.80;99227.00;;;;4993055;28;87403;-64
2022/08/14 10:21:59;;;;;;;10.07;4.28;;;28.40;91.10;28.90;99230.00;;;;4982256;28;86963;-64
2022/08/14 10:24:46;;;;;;;7.43;3.95;;;28.40;91.70;28.90;99227.00;;;;4990272;28;87529;-64
2022/08/14 10:27:18;;;;;;;5.55;4.10;;;28.30;91.00;28.80;99244.00;;;;4992892;28;86511;-64
2022/08/14 10:30:03;;;;;;;5.72;3.67;;;28.20;91.00;28.80;99242.00;;;;4988934;28;87767;-64
2022/08/14 10:32:30;;;;;;;5.45;3.55;;;;;28.80;99233.00;;;;4990132;28;87319;-64
2022/08/14 10:35:09;;;;;;;5.03;3.50;;;28.30;91.10;28.90;99241.00;;;;4987604;28;88800;-64
2022/08/14 10:37:48;;;;;;;6.25;3.65;;;28.40;90.70;28.90;99228.00;;;;4983794;28;89471;-64
2022/08/14 10:40:35;;;;;;;5.28;3.60;;;28.30;90.70;28.70;99231.00;;;;4999275;28;87473;-64
2022/08/14 10:43:02;;;;;;;6.90;3.42;;;;;28.50;99228.00;;;;5000832;28;87456;-64
2022/08/14 10:45:33;;;;;;;7.15;3.88;;;27.90;90.90;28.40;99228.00;;;;4996306;28;87505;-64
2022/08/14 10:48:03;;;;;;;6.15;3.35;;;;;28.40;99231.00;;;;4993655;28;87434;-64
2022/08/14 10:50:35;;;;;;;6.75;3.42;;;27.90;91.00;28.40;99234.00;;;;4986016;28;87236;-65
2022/08/14 10:53:04;;;;;;;8.70;3.25;;;28.00;90.70;28.50;99227.00;;;;4993461;28;86428;-64
2022/08/14 10:55:40;;;;;;;4.22;3.38;;;27.90;90.20;28.40;99227.00;;;;4989836;28;88795;-64
2022/08/14 10:58:10;;;;;;;7.20;3.78;;;28.10;90.00;28.50;99220.00;;;;4988908;28;88425;-64
2022/08/14 11:00:53;;;;;;;14.87;4.67;;;28.10;90.00;28.60;99229.00;;;;4975417;28;88209;-63
2022/08/14 11:03:20;;;;;;;8.90;4.28;;;;;28.70;99228.00;;;;4991746;28;87454;-64
2022/08/14 11:05:50;;;;;;;5.97;3.63;;;28.10;91.30;28.60;99226.00;;;;5001937;28;88749;-65
2022/08/14 11:08:30;;;;;;;9.43;3.78;;;28.00;91.70;28.50;99229.00;;;;4986126;28;88070;-63
2022/08/14 11:11:00;;;;;;;5.57;3.92;;;28.00;92.00;28.60;99228.00;;;;4989113;28;87260;-64
2022/08/14 11:13:29;;;;;;;9.77;3.80;;;28.20;92.40;28.60;99225.00;;;;4995725;28;87594;-64
2022/08/14 11:16:01;;;;;;;9.20;4.30;;;28.30;92.20;28.80;99216.00;;;;4985298;28;87973;-64
2022/08/14 11:18:29;;;;;;;6.90;4.20;;;28.30;91.60;28.80;99224.00;;;;4992736;28;88502;-63
2022/08/14 11:20:59;;;;;;;6.63;3.80;;;28.30;91.80;28.70;99224.00;;;;4987963;28;87080;-64
2022/08/14 11:23:37;;;;;;;5.50;3.80;;;28.30;92.20;28.80;99223.00;;;;4992854;28;87138;-64
2022/08/14 11:26:05;;;;;;;8.20;4.53;;;;;28.90;99217.00;;;;4978929;28;91084;-63
2022/08/14 11:28:35;;;;;;;6.20;3.95;;;28.40;91.10;28.90;99215.00;;;;4996116;28;87345;-63
2022/08/14 11:31:03;;;;;;;11.40;4.13;;;28.40;90.60;28.90;99217.00;;;;4998788;28;87767;-64
2022/08/14 11:33:31;;;;;;;9.88;4.30;;;;;28.80;99216.00;;;;4999782;28;87505;-64
2022/08/14 11:35:59;;;;;;;8.55;3.63;;;28.30;90.60;28.80;99216.00;;;;4984988;28;88292;-65
2022/08/14 11:38:34;;;;;;;11.63;3.83;;;28.40;90.90;28.90;99214.00;;;;4992397;28;88315;-64
2022/08/14 11:41:01;;;;;;;6.82;3.63;;;;;29.00;99209.00;;;;5000989;28;87699;-65
2022/08/14 11:43:27;;;;;;;6.43;3.60;;;;;29.00;99214.00;;;;4995707;28;86634;-65